createdAt,value
2019-01-20T00:08:14.802Z,3.35
2019-01-20T00:14:10.095Z,3.31
2019-01-20T00:22:44.901Z,3.24
2019-01-20T00:33:55.753Z,2.38
2019-01-20T00:36:46.095Z,1.83
2019-01-20T00:45:15.166Z,1.22
2019-01-20T00:50:31.772Z,2.46
2019-01-20T00:53:22.367Z,2.66
2019-01-20T00:59:07.236Z,3.23
2019-01-20T01:04:40.835Z,3.18
2019-01-20T01:07:31.423Z,3.10
2019-01-20T01:16:09.909Z,2.68
2019-01-20T01:19:19.591Z,3.11
2019-01-20T01:22:10.186Z,2.73
2019-01-20T01:25:00.822Z,2.77
2019-01-20T01:36:04.111Z,2.57
2019-01-20T01:44:22.083Z,2.87
2019-01-20T01:50:17.191Z,2.61
2019-01-20T01:55:51.219Z,2.57
2019-01-20T01:58:22.463Z,2.75
2019-01-20T02:01:13.080Z,2.72
2019-01-20T02:04:03.697Z,2.64
2019-01-20T02:06:54.347Z,2.80
2019-01-20T02:09:44.961Z,3.08
2019-01-20T02:12:55.110Z,3.07
2019-01-20T02:18:29.429Z,2.74
2019-01-20T02:21:11.371Z,2.91
2019-01-20T02:29:10.805Z,2.99
2019-01-20T02:32:01.428Z,3.11
2019-01-20T02:34:52.025Z,3.42
2019-01-20T02:40:28.334Z,4.08
2019-01-20T02:43:18.906Z,4.23
2019-01-20T02:46:28.647Z,4.41
2019-01-20T02:49:19.211Z,4.52
2019-01-20T03:00:46.015Z,4.51
2019-01-20T03:12:11.804Z,2.67
2019-01-20T03:14:49.669Z,2.92
2019-01-20T03:17:59.577Z,3.62
2019-01-20T03:23:34.555Z,4.28
2019-01-20T03:29:09.565Z,4.64
2019-01-20T03:32:00.123Z,4.73
2019-01-20T03:37:52.641Z,4.94
2019-01-20T03:40:43.221Z,5.06
2019-01-20T03:49:00.520Z,5.19
2019-01-20T03:51:51.099Z,5.21
2019-01-20T03:54:41.695Z,5.29
2019-01-20T03:57:51.732Z,5.27
2019-01-20T04:00:50.791Z,5.25
2019-01-20T04:06:44.904Z,4.83
2019-01-20T04:12:20.890Z,4.95
2019-01-20T04:15:01.435Z,5.11
2019-01-20T04:17:52.054Z,5.18
2019-01-20T04:20:42.640Z,5.07
2019-01-20T04:23:33.228Z,5.13
2019-01-20T04:26:23.790Z,4.89
2019-01-20T04:29:14.421Z,5.04
2019-01-20T04:32:05.028Z,3.29
2019-01-20T04:37:44.223Z,3.19
2019-01-20T04:40:34.845Z,3.42
2019-01-20T04:43:25.448Z,2.85
2019-01-20T04:59:55.981Z,3.69
2019-01-20T05:02:46.618Z,3.34
2019-01-20T05:05:37.260Z,3.24
2019-01-20T05:11:12.383Z,3.35
2019-01-20T05:13:43.584Z,3.25
2019-01-20T05:21:40.137Z,3.02
2019-01-20T05:24:30.710Z,3.14
2019-01-20T05:27:21.357Z,3.55
2019-01-20T05:30:24.034Z,3.96
2019-01-20T05:35:41.193Z,2.97
2019-01-20T05:38:31.727Z,3.09
2019-01-20T05:41:22.367Z,3.57
2019-01-20T05:44:13.285Z,2.80
2019-01-20T05:47:03.853Z,3.00
2019-01-20T05:49:54.434Z,3.02
2019-01-20T05:58:13.249Z,3.44
2019-01-20T06:01:22.956Z,3.40
2019-01-20T06:04:13.576Z,3.81
2019-01-20T06:07:04.366Z,3.50
2019-01-20T06:09:55.022Z,3.51
2019-01-20T06:12:53.631Z,3.42
2019-01-20T06:15:28.486Z,3.59
2019-01-20T06:18:19.100Z,3.25
2019-01-20T06:23:53.271Z,2.97
2019-01-20T06:27:03.008Z,3.59
2019-01-20T06:29:53.648Z,3.02
2019-01-20T06:38:51.287Z,3.09
2019-01-20T06:47:09.029Z,3.49
2019-01-20T06:49:59.712Z,3.58
2019-01-20T07:04:24.666Z,4.65
2019-01-20T07:07:15.309Z,4.25
2019-01-20T07:10:15.279Z,4.05
2019-01-20T07:13:10.108Z,3.77
2019-01-20T07:21:34.709Z,4.33
2019-01-20T07:32:43.942Z,4.49
2019-01-20T07:35:34.575Z,4.38
2019-01-20T07:41:07.616Z,4.63
2019-01-20T07:44:08.247Z,4.49
2019-01-20T07:52:12.261Z,4.55
2019-01-20T07:58:24.686Z,3.72
2019-01-20T08:01:15.260Z,3.70
2019-01-20T08:16:20.220Z,3.52
2019-01-20T08:27:20.849Z,3.08
2019-01-20T08:30:23.414Z,3.66
2019-01-20T08:33:26.386Z,4.14
2019-01-20T08:35:59.932Z,4.22
2019-01-20T08:38:31.163Z,4.08
2019-01-20T08:41:21.736Z,3.23
2019-01-20T08:47:51.812Z,2.20
2019-01-20T08:50:23.479Z,2.92
2019-01-20T08:53:14.059Z,3.88
2019-01-20T09:04:29.068Z,4.48
2019-01-20T09:07:01.005Z,4.29
2019-01-20T09:09:51.587Z,4.40
2019-01-20T09:15:37.865Z,3.24
2019-01-20T09:18:11.648Z,2.82
2019-01-20T09:24:04.224Z,3.94
2019-01-20T09:32:21.248Z,5.12
2019-01-20T09:35:31.005Z,5.43
2019-01-20T09:41:05.218Z,4.24
2019-01-20T09:43:47.588Z,4.52
2019-01-20T09:46:29.968Z,4.18
2019-01-20T09:49:01.235Z,3.36
2019-01-20T09:51:51.814Z,2.75
2019-01-20T09:54:42.462Z,2.52
2019-01-20T09:57:52.535Z,3.26
2019-01-20T10:03:26.340Z,3.37
2019-01-20T10:05:57.649Z,3.31
2019-01-20T10:08:48.239Z,3.87
2019-01-20T10:11:38.915Z,4.12
2019-01-20T10:14:29.542Z,3.83
2019-01-20T10:17:21.039Z,3.66
2019-01-20T10:23:31.602Z,4.54
2019-01-20T10:26:04.522Z,4.62
2019-01-20T10:31:37.650Z,3.66
2019-01-20T10:37:13.580Z,1.35
2019-01-20T10:40:15.753Z,1.40
2019-01-20T10:42:48.523Z,1.44
2019-01-20T10:48:21.713Z,2.42
2019-01-20T10:51:12.345Z,2.54
2019-01-20T10:54:02.987Z,3.24
2019-01-20T10:56:53.590Z,3.00
2019-01-20T11:05:24.866Z,3.58
2019-01-20T11:07:57.535Z,3.60
2019-01-20T11:10:48.139Z,3.69
2019-01-20T11:13:38.811Z,4.16
2019-01-20T11:22:15.575Z,2.60
2019-01-20T11:25:18.148Z,2.12
2019-01-20T11:36:01.851Z,3.23
2019-01-20T11:38:52.519Z,3.98
2019-01-20T11:41:43.108Z,3.78
2019-01-20T11:44:52.806Z,4.70
2019-01-20T11:48:02.539Z,5.15
2019-01-20T11:50:53.176Z,3.93
2019-01-20T11:53:44.054Z,4.14
2019-01-20T11:56:34.768Z,3.01
2019-01-20T11:59:36.487Z,2.95
2019-01-20T12:02:09.926Z,2.80
2019-01-20T12:05:00.606Z,2.42
2019-01-20T12:07:51.215Z,2.28
2019-01-20T12:10:41.885Z,3.20
2019-01-20T12:13:51.610Z,3.57
2019-01-20T12:16:44.515Z,4.05
2019-01-20T12:22:17.910Z,3.30
2019-01-20T12:25:20.420Z,2.95
2019-01-20T12:31:07.489Z,3.20
2019-01-20T12:33:40.109Z,2.34
2019-01-20T12:36:30.902Z,2.14
2019-01-20T12:39:40.480Z,2.04
2019-01-20T12:45:26.488Z,3.03
2019-01-20T12:47:58.018Z,3.44
2019-01-20T12:50:48.619Z,4.23
2019-01-20T12:53:39.240Z,4.90
2019-01-20T12:56:48.888Z,3.71
2019-01-20T12:59:39.487Z,2.69
2019-01-20T13:02:30.091Z,2.05
2019-01-20T13:05:01.402Z,2.27
2019-01-20T13:07:52.009Z,1.51
2019-01-20T13:10:35.684Z,1.55
2019-01-20T13:13:26.286Z,1.41
2019-01-20T13:16:16.945Z,1.51
2019-01-20T13:21:53.029Z,1.69
2019-01-20T13:24:24.309Z,1.47
2019-01-20T13:27:14.906Z,1.45
2019-01-20T13:30:17.467Z,1.40
2019-01-20T13:33:08.069Z,1.21
2019-01-20T13:41:44.919Z,1.25
2019-01-20T13:47:00.184Z,1.16
2019-01-20T13:58:44.398Z,1.10
2019-01-20T14:04:18.339Z,1.36
2019-01-20T14:07:27.870Z,1.06
2019-01-20T14:10:30.381Z,1.18
2019-01-20T14:15:46.475Z,0.93
2019-01-20T14:18:37.161Z,0.87
2019-01-20T14:24:10.665Z,0.82
2019-01-20T14:29:45.570Z,0.89
2019-01-20T14:33:14.651Z,0.73
2019-01-20T14:44:39.780Z,0.61
2019-01-20T14:47:21.594Z,0.78
2019-01-20T14:50:19.056Z,0.66
2019-01-20T14:58:43.595Z,0.59
2019-01-20T15:01:34.193Z,0.59
2019-01-20T15:04:25.551Z,0.67
2019-01-20T15:06:57.633Z,0.66
2019-01-20T15:09:28.910Z,0.62
2019-01-20T15:12:19.590Z,0.49
2019-01-20T15:15:30.343Z,0.62
2019-01-20T15:18:14.022Z,0.25
2019-01-20T15:21:04.650Z,0.62
2019-01-20T15:23:55.643Z,0.61
2019-01-20T15:26:57.265Z,0.65
2019-01-20T15:29:30.726Z,0.71
2019-01-20T15:32:21.381Z,0.62
2019-01-20T15:35:31.094Z,0.51
2019-01-20T15:38:02.388Z,-0.45
2019-01-20T15:40:53.028Z,0.91
2019-01-20T15:46:48.230Z,0.73
2019-01-20T15:49:48.762Z,0.61
2019-01-20T15:52:20.798Z,0.55
2019-01-20T15:55:23.082Z,0.48
2019-01-20T15:57:56.848Z,0.57
2019-01-20T16:00:47.528Z,0.33
2019-01-20T16:03:38.184Z,0.42
2019-01-20T16:09:12.714Z,0.44
2019-01-20T16:11:44.034Z,0.53
2019-01-20T16:14:34.675Z,0.66
2019-01-20T16:20:16.951Z,0.62
2019-01-20T16:28:39.111Z,0.43
2019-01-20T16:31:29.846Z,0.32
2019-01-20T16:34:40.094Z,0.39
2019-01-20T16:43:31.143Z,0.43
2019-01-20T16:49:09.778Z,0.51
2019-01-20T16:52:00.369Z,0.33
2019-01-20T16:54:53.541Z,0.49
2019-01-20T16:57:44.179Z,0.61
2019-01-20T17:03:40.202Z,0.55
2019-01-20T17:06:50.269Z,0.48
2019-01-20T17:12:24.704Z,0.46
2019-01-20T17:15:28.016Z,0.31
2019-01-20T17:18:02.585Z,0.22
2019-01-20T17:23:38.440Z,0.50
2019-01-20T17:26:29.108Z,0.51
2019-01-20T17:29:19.719Z,0.74
2019-01-20T17:32:10.305Z,0.88
2019-01-20T17:35:01.576Z,1.18
2019-01-20T17:38:11.908Z,1.19
2019-01-20T17:41:08.749Z,0.99
2019-01-20T17:43:59.424Z,1.05
2019-01-20T17:46:50.603Z,1.19
2019-01-20T17:50:00.790Z,1.26
2019-01-20T17:52:51.397Z,1.46
2019-01-20T17:55:42.499Z,1.56
2019-01-20T17:58:33.261Z,1.40
2019-01-20T18:01:24.613Z,1.30
2019-01-20T18:04:21.008Z,0.99
2019-01-20T18:07:23.174Z,1.18
2019-01-20T18:09:56.381Z,1.10
2019-01-20T18:12:47.201Z,1.26
2019-01-20T18:15:38.397Z,1.58
2019-01-20T18:18:21.341Z,1.71
2019-01-20T18:21:18.384Z,1.42
2019-01-20T18:26:59.836Z,1.21
2019-01-20T18:30:16.909Z,1.66
2019-01-20T18:33:12.770Z,1.49
2019-01-20T18:36:09.693Z,1.69
2019-01-20T18:41:44.659Z,1.89
2019-01-20T18:47:38.641Z,1.45
2019-01-20T18:50:31.305Z,1.56
2019-01-20T18:53:02.648Z,1.87
2019-01-20T18:58:36.772Z,1.46
2019-01-20T19:01:37.462Z,1.34
2019-01-20T19:04:11.959Z,1.03
2019-01-20T19:07:03.271Z,0.90
2019-01-20T19:09:55.919Z,0.82
2019-01-20T19:18:39.595Z,0.70
2019-01-20T19:21:30.178Z,0.94
2019-01-20T19:30:45.798Z,1.25
2019-01-20T19:33:17.168Z,1.71
2019-01-20T19:35:48.417Z,1.90
2019-01-20T19:41:23.114Z,1.99
2019-01-20T19:44:13.688Z,1.66
2019-01-20T19:49:46.947Z,1.02
2019-01-20T19:52:56.964Z,0.76
2019-01-20T19:55:47.555Z,0.71
2019-01-20T19:58:38.134Z,0.69
2019-01-20T20:01:30.953Z,0.89
2019-01-20T20:06:56.929Z,1.06
2019-01-20T20:15:59.952Z,0.73
2019-01-20T20:19:01.468Z,0.37
2019-01-20T20:21:44.287Z,0.25
2019-01-20T20:24:37.364Z,0.30
2019-01-20T20:30:23.407Z,0.37
2019-01-20T20:32:54.658Z,0.32
2019-01-20T20:35:45.318Z,0.19
2019-01-20T20:38:35.926Z,0.31
2019-01-20T20:41:26.529Z,0.19
2019-01-20T20:47:00.084Z,0.20
2019-01-20T20:52:56.020Z,0.08
2019-01-20T20:58:48.867Z,-0.06
2019-01-20T21:04:22.224Z,-0.04
2019-01-20T21:06:53.459Z,-0.04
2019-01-20T21:09:44.039Z,-0.11
2019-01-20T21:15:19.240Z,-0.17
2019-01-20T21:18:09.840Z,-0.32
2019-01-20T21:23:44.181Z,-0.37
2019-01-20T21:26:45.852Z,-0.25
2019-01-20T21:29:19.320Z,-0.15
2019-01-20T21:32:14.506Z,0.08
2019-01-20T21:35:17.026Z,0.20
2019-01-20T21:38:08.425Z,0.56
2019-01-20T21:41:00.861Z,0.95
2019-01-20T21:43:33.284Z,0.85
2019-01-20T21:54:37.529Z,-0.28
2019-01-20T21:57:28.149Z,-0.37
2019-01-20T22:00:21.101Z,-0.42
2019-01-20T22:03:13.358Z,-0.47
2019-01-20T22:09:06.255Z,-0.53
2019-01-20T22:11:56.873Z,-0.48
2019-01-20T22:14:47.482Z,-0.46
2019-01-20T22:17:18.742Z,-0.48
2019-01-20T22:20:28.494Z,-0.47
2019-01-20T22:23:19.151Z,-1.35
2019-01-20T22:28:53.631Z,-0.53
2019-01-20T22:31:24.882Z,-0.62
2019-01-20T22:37:22.591Z,-0.62
2019-01-20T22:40:16.179Z,-0.52
2019-01-20T22:45:34.652Z,-0.56
2019-01-20T22:51:08.589Z,-0.67
2019-01-20T22:53:59.234Z,-0.72
2019-01-20T22:56:49.871Z,-0.78
2019-01-20T23:02:23.761Z,-0.82
2019-01-20T23:05:14.977Z,-0.86
2019-01-20T23:07:46.671Z,-0.81
2019-01-20T23:10:37.298Z,-0.71
2019-01-20T23:13:28.008Z,-0.53
2019-01-20T23:21:45.961Z,-0.47
2019-01-20T23:27:11.790Z,-0.70
2019-01-20T23:30:02.386Z,-0.79
2019-01-20T23:33:04.452Z,-0.91
2019-01-20T23:35:35.947Z,-0.86
2019-01-20T23:44:10.987Z,-0.90
2019-01-20T23:47:01.595Z,-0.86
2019-01-20T23:50:30.498Z,-0.70
2019-01-20T23:58:38.009Z,-0.76
